Arrow Rock, Missouri
Current Conditions -  °F | °C
As of 12:35 PM on Thursday 23 Oct 2014 (Local Time) from KVER Reporting Station
Overcast Overcast  
Wind Chill: 60°   Ceiling: 9500
Heat Index: 60°   Visibility: 10mi
Dew Point: 49°   Wind: 5mph
Humidity: 67%   Direction: 170°S
Pressure: 30.13"   Gusts: NA
Location:  39.07°N, 92.95°W
Report Text: KVER 231735Z AUTO 17004KT 10SM OVC095 15/09 A3013 RMK AO2 T01540094
Loading
Personal Weather Stations






























Interactive Weather Map
Tropical Storm Tracking
New forecast layout! Learn more

10-Day Weather Forecast

Advertisements
Track Severe Weather on mobile